createdAt,value
2023-09-29T00:01:40.910Z,101478.38
2023-09-29T00:04:07.550Z,101481.91
2023-09-29T00:06:34.496Z,101481.09
2023-09-29T00:09:01.810Z,101471.66
2023-09-29T00:11:32.066Z,101470.34
2023-09-29T00:13:59.172Z,101451.28
2023-09-29T00:16:25.986Z,101448.34
2023-09-29T00:18:52.536Z,101424.06
2023-09-29T00:21:19.949Z,101428.69
2023-09-29T00:23:46.487Z,101436.25
2023-09-29T00:26:13.003Z,101424.75
2023-09-29T00:28:40.262Z,101428.75
2023-09-29T00:31:07.493Z,101427.47
2023-09-29T00:33:34.600Z,101420.75
2023-09-29T00:36:01.399Z,101423.22
2023-09-29T00:38:28.843Z,101430.34
2023-09-29T00:40:56.957Z,101425.50
2023-09-29T00:43:23.599Z,101423.63
2023-09-29T00:45:51.009Z,101417.34
2023-09-29T00:48:18.414Z,101410.00
2023-09-29T00:50:46.298Z,101423.38
2023-09-29T00:53:15.857Z,101424.22
2023-09-29T00:55:44.039Z,101420.44
2023-09-29T00:58:13.963Z,101422.94
2023-09-29T01:00:41.943Z,101415.81
2023-09-29T01:03:10.592Z,101416.91
2023-09-29T01:05:48.753Z,101423.59
2023-09-29T01:08:18.194Z,101412.03
2023-09-29T01:10:45.576Z,101411.22
2023-09-29T01:13:13.235Z,101412.03
2023-09-29T01:15:40.461Z,101406.41
2023-09-29T01:18:07.597Z,101404.28
2023-09-29T01:20:35.901Z,101399.66
2023-09-29T01:23:04.862Z,101391.72
2023-09-29T01:25:31.670Z,101379.78
2023-09-29T01:27:58.865Z,101388.19
2023-09-29T01:30:26.853Z,101382.50
2023-09-29T01:32:57.596Z,101371.59
2023-09-29T01:35:24.932Z,101375.16
2023-09-29T01:37:54.832Z,101368.28
2023-09-29T01:40:24.967Z,101371.19
2023-09-29T01:42:52.741Z,101363.47
2023-09-29T01:45:20.297Z,101364.09
2023-09-29T01:47:48.452Z,101367.63
2023-09-29T01:50:16.307Z,101371.44
2023-09-29T01:52:47.552Z,101362.19
2023-09-29T01:55:20.725Z,101357.41
2023-09-29T01:57:48.902Z,101342.72
2023-09-29T02:00:21.898Z,101339.59
2023-09-29T02:02:49.325Z,101354.03
2023-09-29T02:05:19.470Z,101357.41
2023-09-29T02:07:47.628Z,101356.34
2023-09-29T02:10:21.828Z,101350.06
2023-09-29T02:12:56.933Z,101356.09
2023-09-29T02:15:25.899Z,101350.44
2023-09-29T02:17:53.475Z,101347.91
2023-09-29T02:20:22.168Z,101337.28
2023-09-29T02:22:49.919Z,101346.50
2023-09-29T02:25:18.540Z,101337.03
2023-09-29T02:27:45.337Z,101339.28
2023-09-29T02:30:13.086Z,101342.84
2023-09-29T02:32:42.756Z,101351.84
2023-09-29T02:35:10.624Z,101343.47
2023-09-29T02:37:37.511Z,101348.44
2023-09-29T02:40:10.906Z,101329.38
2023-09-29T02:42:37.600Z,101334.09
2023-09-29T02:45:05.613Z,101322.00
2023-09-29T02:47:32.701Z,101324.31
2023-09-29T02:49:59.950Z,101304.88
2023-09-29T02:52:28.270Z,101307.81
2023-09-29T02:54:57.747Z,101302.38
2023-09-29T02:57:24.546Z,101294.44
2023-09-29T02:59:52.096Z,101288.16
2023-09-29T03:02:18.730Z,101284.84
2023-09-29T03:04:48.052Z,101291.34
2023-09-29T03:07:14.537Z,101295.72
2023-09-29T03:09:41.034Z,101293.25
2023-09-29T03:12:08.501Z,101285.53
2023-09-29T03:14:35.363Z,101283.88
2023-09-29T03:17:01.950Z,101289.06
2023-09-29T03:19:29.036Z,101283.63
2023-09-29T03:21:55.488Z,101279.50
2023-09-29T03:24:23.175Z,101279.13
2023-09-29T03:26:50.467Z,101274.75
2023-09-29T03:29:18.900Z,101269.66
2023-09-29T03:31:46.308Z,101256.66
2023-09-29T03:34:12.804Z,101254.75
2023-09-29T03:36:40.031Z,101256.19
2023-09-29T03:39:07.501Z,101257.72
2023-09-29T03:41:34.597Z,101249.56
2023-09-29T03:44:01.557Z,101243.41
2023-09-29T03:46:30.300Z,101235.81
2023-09-29T03:48:57.072Z,101231.22
2023-09-29T03:51:24.900Z,101227.44
2023-09-29T03:53:57.343Z,101218.47
2023-09-29T03:56:24.423Z,101218.22
2023-09-29T03:58:51.885Z,101215.50
2023-09-29T04:01:18.673Z,101221.56
2023-09-29T04:03:45.334Z,101216.69
2023-09-29T04:06:12.612Z,101219.41
2023-09-29T04:08:39.956Z,101217.50
2023-09-29T04:11:07.128Z,101216.69
2023-09-29T04:13:34.587Z,101208.75
2023-09-29T04:16:08.684Z,101224.47
2023-09-29T04:18:36.495Z,101227.22
2023-09-29T04:21:03.966Z,101217.16
2023-09-29T04:23:30.731Z,101207.31
2023-09-29T04:25:57.298Z,101210.28
2023-09-29T04:28:23.775Z,101205.88
2023-09-29T04:30:50.227Z,101197.03
2023-09-29T04:33:16.928Z,101197.88
2023-09-29T04:35:44.599Z,101202.84
2023-09-29T04:38:11.381Z,101193.38
2023-09-29T04:40:39.120Z,101205.09
2023-09-29T04:43:06.650Z,101202.78
2023-09-29T04:45:35.172Z,101195.22
2023-09-29T04:48:02.732Z,101191.41
2023-09-29T04:50:30.436Z,101193.69
2023-09-29T04:52:57.178Z,101190.59
2023-09-29T04:55:23.649Z,101183.47
2023-09-29T04:57:53.436Z,101191.88
2023-09-29T05:00:19.909Z,101201.50
2023-09-29T05:02:46.866Z,101198.28
2023-09-29T05:05:13.794Z,101202.44
2023-09-29T05:07:40.716Z,101201.59
2023-09-29T05:10:07.678Z,101198.63
2023-09-29T05:12:34.177Z,101198.06
2023-09-29T05:15:00.780Z,101192.38
2023-09-29T05:17:40.683Z,101200.31
2023-09-29T05:20:13.882Z,101204.56
2023-09-29T05:22:40.375Z,101200.16
2023-09-29T05:25:07.211Z,101199.13
2023-09-29T05:27:33.676Z,101202.44
2023-09-29T05:30:00.393Z,101205.97
2023-09-29T05:32:26.959Z,101206.34
2023-09-29T05:34:53.469Z,101201.72
2023-09-29T05:37:19.961Z,101207.78
2023-09-29T05:39:46.371Z,101200.91
2023-09-29T05:42:13.683Z,101209.69
2023-09-29T05:44:40.419Z,101206.34
2023-09-29T05:47:06.978Z,101208.50
2023-09-29T05:49:33.706Z,101212.63
2023-09-29T05:52:00.283Z,101197.94
2023-09-29T05:54:26.710Z,101199.25
2023-09-29T05:56:53.359Z,101203.06
2023-09-29T05:59:19.832Z,101206.34
2023-09-29T06:01:47.204Z,101208.25
2023-09-29T06:04:13.957Z,101195.47
2023-09-29T06:06:40.607Z,101201.97
2023-09-29T06:09:07.608Z,101199.25
2023-09-29T06:11:34.286Z,101206.09
2023-09-29T06:14:00.899Z,101205.28
2023-09-29T06:16:27.380Z,101203.38
2023-09-29T06:18:54.117Z,101206.81
2023-09-29T06:21:20.584Z,101206.34
2023-09-29T06:23:47.128Z,101210.97
2023-09-29T06:26:13.634Z,101218.06
2023-09-29T06:28:40.111Z,101213.44
2023-09-29T06:31:07.255Z,101206.09
2023-09-29T06:33:33.957Z,101210.72
2023-09-29T06:36:00.533Z,101217.00
2023-09-29T06:38:37.381Z,101210.97
2023-09-29T06:41:03.797Z,101216.78
2023-09-29T06:43:30.242Z,101222.22
2023-09-29T06:46:01.911Z,101219.50
2023-09-29T06:48:29.610Z,101228.50
2023-09-29T06:51:00.778Z,101220.34
2023-09-29T06:53:29.775Z,101229.34
2023-09-29T06:55:56.339Z,101228.25
2023-09-29T06:58:22.774Z,101229.09
2023-09-29T07:00:50.946Z,101227.81
2023-09-29T07:03:17.554Z,101231.97
2023-09-29T07:05:44.060Z,101227.91
2023-09-29T07:08:10.594Z,101224.97
2023-09-29T07:10:37.118Z,101224.16
2023-09-29T07:13:03.612Z,101218.47
2023-09-29T07:15:30.035Z,101225.81
2023-09-29T07:17:56.803Z,101223.44
2023-09-29T07:20:23.416Z,101231.13
2023-09-29T07:22:52.471Z,101235.28
2023-09-29T07:25:19.985Z,101225.81
2023-09-29T07:27:46.500Z,101237.66
2023-09-29T07:30:13.499Z,101238.50
2023-09-29T07:32:42.395Z,101235.41
2023-09-29T07:35:09.346Z,101236.03
2023-09-29T07:37:36.073Z,101241.84
2023-09-29T07:40:02.961Z,101247.38
2023-09-29T07:42:29.441Z,101254.25
2023-09-29T07:44:55.939Z,101243.22
2023-09-29T07:47:22.385Z,101248.84
2023-09-29T07:49:48.832Z,101255.69
2023-09-29T07:52:15.276Z,101259.25
2023-09-29T07:54:41.720Z,101256.31
2023-09-29T07:57:08.228Z,101254.88
2023-09-29T07:59:34.726Z,101259.59
2023-09-29T08:02:01.370Z,101254.50
2023-09-29T08:04:28.028Z,101261.63
2023-09-29T08:06:54.542Z,101259.13
2023-09-29T08:09:20.961Z,101259.38
2023-09-29T08:11:47.491Z,101258.78
2023-09-29T08:14:14.202Z,101258.44
2023-09-29T08:16:41.177Z,101265.31
2023-09-29T08:19:07.752Z,101262.59
2023-09-29T08:21:34.573Z,101258.31
2023-09-29T08:24:03.977Z,101271.00
2023-09-29T08:26:32.005Z,101265.78
2023-09-29T08:29:00.596Z,101268.50
2023-09-29T08:31:27.411Z,101272.66
2023-09-29T08:33:54.067Z,101272.44
2023-09-29T08:36:21.027Z,101282.88
2023-09-29T08:38:47.788Z,101278.00
2023-09-29T08:41:16.584Z,101280.03
2023-09-29T08:43:56.025Z,101275.19
2023-09-29T08:46:27.192Z,101281.94
2023-09-29T08:48:56.306Z,101282.91
2023-09-29T08:51:26.048Z,101284.66
2023-09-29T08:53:53.840Z,101289.03
2023-09-29T08:56:21.152Z,101286.66
2023-09-29T08:58:47.788Z,101280.13
2023-09-29T09:01:14.872Z,101292.13
2023-09-29T09:03:41.415Z,101291.66
2023-09-29T09:06:26.132Z,101287.28
2023-09-29T09:08:54.324Z,101297.47
2023-09-29T09:11:21.010Z,101300.09
2023-09-29T09:14:04.623Z,101294.47
2023-09-29T09:16:35.366Z,101294.13
2023-09-29T09:19:15.757Z,101300.66
2023-09-29T09:21:44.142Z,101293.66
2023-09-29T09:24:24.512Z,101292.72
2023-09-29T09:26:53.125Z,101280.47
2023-09-29T09:29:20.736Z,101287.94
2023-09-29T09:31:54.949Z,101291.25
2023-09-29T09:34:32.247Z,101298.25
2023-09-29T09:36:59.697Z,101301.56
2023-09-29T09:39:28.847Z,101295.06
2023-09-29T09:41:57.818Z,101300.03
2023-09-29T09:44:26.700Z,101303.94
2023-09-29T09:46:58.764Z,101298.00
2023-09-29T09:49:29.995Z,101311.16
2023-09-29T09:52:04.680Z,101317.09
2023-09-29T09:54:36.215Z,101316.16
2023-09-29T09:57:10.398Z,101312.00
2023-09-29T09:59:37.389Z,101323.50
2023-09-29T10:02:07.662Z,101322.94
2023-09-29T10:04:37.206Z,101330.88
2023-09-29T10:07:05.928Z,101343.47
2023-09-29T10:09:46.483Z,101335.84
2023-09-29T10:12:31.282Z,101334.47
2023-09-29T10:15:00.260Z,101346.06
2023-09-29T10:17:40.964Z,101346.78
2023-09-29T10:20:20.238Z,101344.56
2023-09-29T10:22:48.010Z,101337.66
2023-09-29T10:25:21.553Z,101346.94
2023-09-29T10:27:51.167Z,101347.41
2023-09-29T10:30:17.848Z,101353.09
2023-09-29T10:32:46.819Z,101363.41
2023-09-29T10:35:20.987Z,101357.50
2023-09-29T10:37:55.835Z,101371.13
2023-09-29T10:40:24.009Z,101362.13
2023-09-29T10:42:55.367Z,101366.59
2023-09-29T10:45:37.792Z,101381.94
2023-09-29T10:48:08.865Z,101384.66
2023-09-29T10:50:50.910Z,101382.16
2023-09-29T10:53:19.867Z,101397.44
2023-09-29T10:55:48.999Z,101408.38
2023-09-29T10:58:19.738Z,101417.25
2023-09-29T11:00:50.079Z,101427.31
2023-09-29T11:03:19.896Z,101433.22
2023-09-29T11:08:44.142Z,101442.06
2023-09-29T11:11:10.864Z,101465.47
2023-09-29T11:13:39.937Z,101462.47
2023-09-29T11:16:18.137Z,101459.16
2023-09-29T11:18:47.876Z,101465.50
2023-09-29T11:21:14.535Z,101473.69
2023-09-29T11:23:45.201Z,101484.38
2023-09-29T11:26:13.186Z,101494.00
2023-09-29T11:28:48.590Z,101502.84
2023-09-29T11:31:18.632Z,101504.97
2023-09-29T11:33:46.464Z,101514.34
2023-09-29T11:36:18.532Z,101516.38
2023-09-29T11:38:46.178Z,101517.00
2023-09-29T11:41:14.419Z,101521.16
2023-09-29T11:43:41.936Z,101525.75
2023-09-29T11:46:10.120Z,101534.78
2023-09-29T11:48:38.878Z,101537.59
2023-09-29T11:51:06.661Z,101541.88
2023-09-29T11:53:33.471Z,101550.34
2023-09-29T11:56:00.114Z,101553.75
2023-09-29T11:58:26.575Z,101563.19
2023-09-29T12:00:53.758Z,101565.19
2023-09-29T12:03:22.797Z,101574.19
2023-09-29T12:05:53.224Z,101574.19
2023-09-29T12:08:20.534Z,101577.28
2023-09-29T12:10:47.668Z,101588.78
2023-09-29T12:13:16.761Z,101594.75
2023-09-29T12:15:47.028Z,101611.50
2023-09-29T12:18:13.702Z,101615.22
2023-09-29T12:20:41.294Z,101624.25
2023-09-29T12:23:09.561Z,101614.16
2023-09-29T12:25:39.605Z,101627.50
2023-09-29T12:28:06.929Z,101642.78
2023-09-29T12:30:34.126Z,101640.06
2023-09-29T12:33:00.958Z,101643.41
2023-09-29T12:35:28.564Z,101652.94
2023-09-29T12:37:55.112Z,101650.81
2023-09-29T12:40:21.565Z,101660.00
2023-09-29T12:42:48.928Z,101666.72
2023-09-29T12:45:18.978Z,101655.81
2023-09-29T12:47:46.938Z,101669.41
2023-09-29T12:50:13.571Z,101682.34
2023-09-29T12:52:40.261Z,101670.63
2023-09-29T12:55:07.393Z,101681.91
2023-09-29T12:57:33.941Z,101690.28
2023-09-29T13:00:01.185Z,101695.34
2023-09-29T13:02:33.019Z,101703.16
2023-09-29T13:05:00.189Z,101708.81
2023-09-29T13:07:26.932Z,101718.66
2023-09-29T13:09:53.614Z,101724.31
2023-09-29T13:12:31.021Z,101735.19
2023-09-29T13:14:58.700Z,101752.00
2023-09-29T13:17:25.265Z,101759.56
2023-09-29T13:19:51.730Z,101756.19
2023-09-29T13:22:18.220Z,101772.41
2023-09-29T13:24:44.730Z,101778.63
2023-09-29T13:27:11.677Z,101787.03
2023-09-29T13:29:39.686Z,101784.75
2023-09-29T13:32:06.223Z,101790.81
2023-09-29T13:34:32.729Z,101794.22
2023-09-29T13:37:00.596Z,101783.53
2023-09-29T13:39:28.974Z,101795.50
2023-09-29T13:41:55.719Z,101792.75
2023-09-29T13:44:22.381Z,101811.00
2023-09-29T13:47:03.266Z,101803.66
2023-09-29T13:49:30.702Z,101808.06
2023-09-29T13:51:57.185Z,101820.66
2023-09-29T13:54:23.793Z,101824.81
2023-09-29T13:56:50.408Z,101830.25
2023-09-29T13:59:17.183Z,101823.44
2023-09-29T14:01:43.748Z,101835.41
2023-09-29T14:04:10.470Z,101836.91
2023-09-29T14:06:37.062Z,101840.28
2023-09-29T14:09:16.319Z,101849.50
2023-09-29T14:11:44.595Z,101856.19
2023-09-29T14:14:11.085Z,101851.50
2023-09-29T14:16:37.673Z,101856.53
2023-09-29T14:19:04.321Z,101866.78
2023-09-29T14:21:30.761Z,101866.09
2023-09-29T14:23:57.501Z,101861.66
2023-09-29T14:26:24.182Z,101868.78
2023-09-29T14:28:50.618Z,101874.44
2023-09-29T14:31:17.827Z,101885.19
2023-09-29T14:33:45.100Z,101879.72
2023-09-29T14:36:11.986Z,101886.91
2023-09-29T14:38:40.882Z,101886.75
2023-09-29T14:41:09.544Z,101907.00
2023-09-29T14:43:37.185Z,101892.78
2023-09-29T14:46:11.428Z,101898.44
2023-09-29T14:48:38.221Z,101911.66
2023-09-29T14:51:06.279Z,101919.66
2023-09-29T14:53:33.556Z,101922.63
2023-09-29T14:56:08.825Z,101920.09
2023-09-29T14:58:35.587Z,101931.25
2023-09-29T15:01:02.660Z,101935.03
2023-09-29T15:03:32.571Z,101949.91
2023-09-29T15:06:14.702Z,101952.44
2023-09-29T15:08:42.714Z,101952.69
2023-09-29T15:11:09.887Z,101952.09
2023-09-29T15:13:36.492Z,101948.97
2023-09-29T15:16:05.566Z,101957.56
2023-09-29T15:18:32.421Z,101957.78
2023-09-29T15:20:58.998Z,101959.50
2023-09-29T15:23:25.424Z,101965.13
2023-09-29T15:25:53.166Z,101974.38
2023-09-29T15:28:20.480Z,101979.59
2023-09-29T15:30:48.850Z,101981.06
2023-09-29T15:33:16.601Z,101988.59
2023-09-29T15:35:56.104Z,101986.94
2023-09-29T15:38:24.574Z,101997.00
2023-09-29T15:40:54.335Z,101997.22
2023-09-29T15:43:21.572Z,102003.34
2023-09-29T15:45:49.343Z,102005.44
2023-09-29T15:48:16.807Z,102007.97
2023-09-29T15:50:43.490Z,102011.75
2023-09-29T15:53:12.131Z,102014.25
2023-09-29T15:55:43.361Z,102026.41
2023-09-29T15:58:11.142Z,102023.91
2023-09-29T16:00:38.589Z,102019.72
2023-09-29T16:03:08.547Z,102034.38
2023-09-29T16:05:35.997Z,102037.75
2023-09-29T16:08:03.163Z,102028.50
2023-09-29T16:10:30.096Z,102043.19
2023-09-29T16:12:56.917Z,102044.03
2023-09-29T16:15:23.435Z,102043.63
2023-09-29T16:17:50.183Z,102049.25
2023-09-29T16:20:16.795Z,102048.22
2023-09-29T16:22:43.661Z,102044.88
2023-09-29T16:25:11.131Z,102053.03
2023-09-29T16:27:37.823Z,102060.38
2023-09-29T16:30:05.883Z,102067.06
2023-09-29T16:32:33.178Z,102063.50
2023-09-29T16:35:03.796Z,102072.31
2023-09-29T16:37:34.700Z,102068.78
2023-09-29T16:40:08.404Z,102075.88
2023-09-29T16:42:41.522Z,102086.78
2023-09-29T16:45:08.784Z,102087.41
2023-09-29T16:47:35.328Z,102096.41
2023-09-29T16:50:01.861Z,102098.69
2023-09-29T16:52:28.413Z,102110.47
2023-09-29T16:54:54.813Z,102105.00
2023-09-29T16:57:22.884Z,102117.19
2023-09-29T16:59:50.307Z,102112.31
2023-09-29T17:02:17.149Z,102116.94
2023-09-29T17:04:43.789Z,102119.44
2023-09-29T17:07:10.286Z,102118.63
2023-09-29T17:09:37.543Z,102128.88
2023-09-29T17:12:04.317Z,102136.19
2023-09-29T17:14:30.783Z,102142.28
2023-09-29T17:16:57.284Z,102149.19
2023-09-29T17:19:23.858Z,102156.31
2023-09-29T17:21:50.355Z,102159.44
2023-09-29T17:24:16.858Z,102159.25
2023-09-29T17:26:43.370Z,102167.19
2023-09-29T17:29:10.217Z,102175.56
2023-09-29T17:31:37.322Z,102180.38
2023-09-29T17:34:03.972Z,102179.53
2023-09-29T17:36:30.644Z,102180.81
2023-09-29T17:38:57.822Z,102187.94
2023-09-29T17:41:24.339Z,102186.25
2023-09-29T17:43:50.843Z,102192.53
2023-09-29T17:46:17.268Z,102195.88
2023-09-29T17:48:44.543Z,102205.94
2023-09-29T17:51:12.547Z,102210.53
2023-09-29T17:53:39.120Z,102216.22
2023-09-29T17:56:06.951Z,102219.34
2023-09-29T17:58:33.971Z,102219.34
2023-09-29T18:01:04.939Z,102227.50
2023-09-29T18:03:31.613Z,102231.03
2023-09-29T18:05:58.138Z,102228.75
2023-09-29T18:08:24.658Z,102228.94
2023-09-29T18:10:52.740Z,102237.94
2023-09-29T18:13:19.622Z,102240.88
2023-09-29T18:15:46.162Z,102241.69
2023-09-29T18:18:12.734Z,102245.69
2023-09-29T18:20:39.331Z,102246.72
2023-09-29T18:23:05.778Z,102253.22
2023-09-29T18:25:32.418Z,102251.53
2023-09-29T18:27:59.254Z,102255.31
2023-09-29T18:30:27.118Z,102254.66
2023-09-29T18:32:54.186Z,102260.09
2023-09-29T18:35:20.764Z,102265.75
2023-09-29T18:37:47.245Z,102266.78
2023-09-29T18:40:14.213Z,102267.66
2023-09-29T18:42:40.678Z,102270.56
2023-09-29T18:45:07.702Z,102269.94
2023-09-29T18:47:34.401Z,102283.31
2023-09-29T18:50:01.504Z,102275.16
2023-09-29T18:52:27.997Z,102276.00
2023-09-29T18:54:54.452Z,102282.47
2023-09-29T18:57:20.996Z,102284.38
2023-09-29T18:59:47.642Z,102287.28
2023-09-29T19:02:14.523Z,102288.31
2023-09-29T19:04:40.938Z,102293.53
2023-09-29T19:07:07.495Z,102294.78
2023-09-29T19:09:34.153Z,102299.78
2023-09-29T19:12:02.968Z,102300.59
2023-09-29T19:14:30.344Z,102298.28
2023-09-29T19:16:56.872Z,102297.38
2023-09-29T19:19:24.373Z,102309.09
2023-09-29T19:21:50.950Z,102306.97
2023-09-29T19:24:17.541Z,102306.53
2023-09-29T19:26:44.094Z,102312.53
2023-09-29T19:29:10.620Z,102306.00
2023-09-29T19:31:37.374Z,102305.75
2023-09-29T19:34:04.129Z,102318.06
2023-09-29T19:36:32.127Z,102316.97
2023-09-29T19:38:58.848Z,102312.97
2023-09-29T19:41:28.503Z,102322.75
2023-09-29T19:43:55.004Z,102328.59
2023-09-29T19:46:23.153Z,102339.66
2023-09-29T19:48:52.180Z,102346.28
2023-09-29T19:51:19.491Z,102344.00
2023-09-29T19:53:46.127Z,102339.78
2023-09-29T19:56:13.856Z,102357.31
2023-09-29T19:58:41.475Z,102352.06
2023-09-29T20:01:09.520Z,102366.03
2023-09-29T20:03:36.153Z,102368.97
2023-09-29T20:06:03.017Z,102369.34
2023-09-29T20:08:31.249Z,102368.88
2023-09-29T20:10:57.792Z,102363.88
2023-09-29T20:13:24.343Z,102361.53
2023-09-29T20:15:54.301Z,102367.53
2023-09-29T20:18:21.479Z,102357.06
2023-09-29T20:20:48.195Z,102357.44
2023-09-29T20:23:15.196Z,102353.25
2023-09-29T20:25:41.936Z,102356.34
2023-09-29T20:28:08.389Z,102357.75
2023-09-29T20:30:34.868Z,102367.97
2023-09-29T20:33:01.537Z,102355.63
2023-09-29T20:35:28.341Z,102353.09
2023-09-29T20:37:54.907Z,102352.63
2023-09-29T20:40:21.421Z,102351.16
2023-09-29T20:42:47.952Z,102345.91
2023-09-29T20:45:14.386Z,102351.31
2023-09-29T20:47:42.370Z,102355.75
2023-09-29T20:50:09.439Z,102363.88
2023-09-29T20:52:35.857Z,102374.09
2023-09-29T20:55:02.846Z,102376.16
2023-09-29T20:57:30.003Z,102379.25
2023-09-29T20:59:56.637Z,102382.81
2023-09-29T21:02:23.132Z,102379.88
2023-09-29T21:04:50.049Z,102380.94
2023-09-29T21:07:16.694Z,102377.38
2023-09-29T21:09:43.254Z,102368.41
2023-09-29T21:12:11.920Z,102373.63
2023-09-29T21:14:38.553Z,102371.09
2023-09-29T21:17:05.218Z,102372.13
2023-09-29T21:19:35.080Z,102361.63
2023-09-29T21:22:04.960Z,102369.94
2023-09-29T21:24:31.767Z,102360.31
2023-09-29T21:26:58.922Z,102370.34
2023-09-29T21:29:25.529Z,102376.78
2023-09-29T21:31:53.698Z,102372.59
2023-09-29T21:34:20.774Z,102381.31
2023-09-29T21:36:47.434Z,102381.88
2023-09-29T21:39:14.595Z,102380.16
2023-09-29T21:41:43.877Z,102381.00
2023-09-29T21:44:14.990Z,102384.97
2023-09-29T21:46:42.410Z,102386.00
2023-09-29T21:49:09.130Z,102388.88
2023-09-29T21:51:37.773Z,102399.09
2023-09-29T21:54:04.424Z,102404.69
2023-09-29T21:56:30.900Z,102399.25
2023-09-29T21:58:58.016Z,102399.25
2023-09-29T22:01:24.632Z,102396.56
2023-09-29T22:03:51.523Z,102396.56
2023-09-29T22:06:19.219Z,102394.25
2023-09-29T22:08:45.904Z,102402.75
2023-09-29T22:11:13.874Z,102404.31
2023-09-29T22:13:41.896Z,102404.50
2023-09-29T22:16:09.399Z,102394.22
2023-09-29T22:18:36.642Z,102397.78
2023-09-29T22:21:03.889Z,102397.97
2023-09-29T22:23:32.104Z,102401.34
2023-09-29T22:25:59.150Z,102392.16
2023-09-29T22:28:25.898Z,102385.25
2023-09-29T22:30:54.128Z,102395.25
2023-09-29T22:33:22.427Z,102385.63
2023-09-29T22:35:49.330Z,102386.81
2023-09-29T22:38:15.904Z,102386.00
2023-09-29T22:40:42.350Z,102400.38
2023-09-29T22:43:08.820Z,102405.66
2023-09-29T22:45:35.441Z,102401.06
2023-09-29T22:48:02.057Z,102406.47
2023-09-29T22:50:28.530Z,102403.97
2023-09-29T22:52:55.036Z,102414.81
2023-09-29T22:55:21.492Z,102418.16
2023-09-29T22:57:48.401Z,102421.91
2023-09-29T23:00:15.130Z,102425.00
2023-09-29T23:02:44.161Z,102419.56
2023-09-29T23:05:12.272Z,102422.28
2023-09-29T23:07:38.957Z,102415.19
2023-09-29T23:10:06.397Z,102417.22
2023-09-29T23:12:33.304Z,102419.09
2023-09-29T23:15:01.177Z,102415.53
2023-09-29T23:17:27.836Z,102414.69
2023-09-29T23:19:54.376Z,102426.59
2023-09-29T23:22:20.861Z,102434.72
2023-09-29T23:24:47.434Z,102433.22
2023-09-29T23:27:14.312Z,102424.25
2023-09-29T23:29:40.851Z,102405.41
2023-09-29T23:32:07.900Z,102411.03
2023-09-29T23:34:35.147Z,102415.81
2023-09-29T23:37:01.730Z,102414.94
2023-09-29T23:39:28.246Z,102408.53
2023-09-29T23:41:55.712Z,102388.50
2023-09-29T23:44:24.123Z,102390.19
2023-09-29T23:46:50.611Z,102398.50
2023-09-29T23:49:17.194Z,102410.56
2023-09-29T23:51:45.258Z,102411.59
2023-09-29T23:54:12.073Z,102421.59
2023-09-29T23:56:38.592Z,102424.47
2023-09-29T23:59:05.106Z,102420.78
